Alma, Mississippi
Current Conditions -  °F | °C
As of 1:53 AM on Thursday 18 Dec 2014 (Local Time) from KTUP Reporting Station
Overcast Overcast  
Wind Chill:   Ceiling: 8000
Heat Index:   Visibility: 10mi
Dew Point:   Wind: 7mph
Humidity: 73%   Direction: 40°NE
Pressure: 30.25"   Gusts: NA
Location:  34.433°N, 88.7018°W
Report Text: KTUP 180753Z AUTO 04006KT 10SM OVC080 05/01 A3025 RMK AO2 SLP244 T00500006
Loading
Personal Weather Stations






























Interactive Weather Map New forecast layout! Learn more

10-Day Weather Forecast

Advertisements
Track Severe Weather on mobile